Map

Track Data

SID SEASON NUMBER BASIN SUBBASIN NAME ISO_TIME NATURE LAT LON WMO_WIND WMO_PRES WMO_AGENCY TRACK_TYPE DIST2LAND LANDFALL IFLAG USA_AGENCY USA_ATCF_ID USA_LAT USA_LON USA_RECORD USA_STATUS USA_WIND USA_PRES USA_SSHS USA_R34_NE USA_R34_SE USA_R34_SW USA_R34_NW USA_R50_NE USA_R50_SE USA_R50_SW USA_R50_NW USA_R64_NE USA_R64_SE USA_R64_SW USA_R64_NW USA_POCI USA_ROCI USA_RMW USA_EYE TOKYO_LAT TOKYO_LON TOKYO_GRADE TOKYO_WIND TOKYO_PRES TOKYO_R50_DIR TOKYO_R50_LONG TOKYO_R50_SHORT TOKYO_R30_DIR TOKYO_R30_LONG TOKYO_R30_SHORT TOKYO_LAND CMA_LAT CMA_LON CMA_CAT CMA_WIND CMA_PRES HKO_LAT HKO_LON HKO_CAT HKO_WIND HKO_PRES NEWDELHI_LAT NEWDELHI_LON NEWDELHI_GRADE NEWDELHI_WIND NEWDELHI_PRES NEWDELHI_CI NEWDELHI_DP NEWDELHI_POCI REUNION_LAT REUNION_LON REUNION_TYPE REUNION_WIND REUNION_PRES REUNION_TNUM REUNION_CI REUNION_RMW REUNION_R34_NE REUNION_R34_SE REUNION_R34_SW REUNION_R34_NW REUNION_R50_NE REUNION_R50_SE REUNION_R50_SW REUNION_R50_NW REUNION_R64_NE REUNION_R64_SE REUNION_R64_SW REUNION_R64_NW BOM_LAT BOM_LON BOM_TYPE BOM_WIND BOM_PRES BOM_TNUM BOM_CI BOM_RMW BOM_R34_NE BOM_R34_SE BOM_R34_SW BOM_R34_NW BOM_R50_NE BOM_R50_SE BOM_R50_SW BOM_R50_NW BOM_R64_NE BOM_R64_SE BOM_R64_SW BOM_R64_NW BOM_ROCI BOM_POCI BOM_EYE BOM_POS_METHOD BOM_PRES_METHOD NADI_LAT NADI_LON NADI_CAT NADI_WIND NADI_PRES WELLINGTON_LAT WELLINGTON_LON WELLINGTON_WIND WELLINGTON_PRES DS824_LAT DS824_LON DS824_STAGE DS824_WIND DS824_PRES TD9636_LAT TD9636_LON TD9636_STAGE TD9636_WIND TD9636_PRES TD9635_LAT TD9635_LON TD9635_WIND TD9635_PRES TD9635_ROCI NEUMANN_LAT NEUMANN_LON NEUMANN_CLASS NEUMANN_WIND NEUMANN_PRES MLC_LAT MLC_LON MLC_CLASS MLC_WIND MLC_PRES USA_GUST BOM_GUST BOM_GUST_PER REUNION_GUST REUNION_GUST_PER USA_SEAHGT USA_SEARAD_NE USA_SEARAD_SE USA_SEARAD_SW USA_SEARAD_NW STORM_SPEED STORM_DIR
1925177N20089 1925 26 NI BB NOT_NAMED 1925-06-26 00:00:00 TS 20.1000 88.5000 main 167 156 _________O____ -1 20.1000 88.5000 TC 34 1 13
1925177N20089 1925 26 NI BB NOT_NAMED 1925-06-26 03:00:00 TS 20.1667 88.5083 main 156 145 _________PO___ -1 20.2000 88.5125 TC 36 20.1000 88.5000 2 2 351
1925177N20089 1925 26 NI BB NOT_NAMED 1925-06-26 06:00:00 TS 20.2656 88.4882 main 145 134 _________OP___ -1 20.3000 88.5000 TC 39 20.2141 88.4704 2 2 343
1925177N20089 1925 26 NI BB NOT_NAMED 1925-06-26 09:00:00 TS 20.3668 88.4468 main 134 123 _________PP___ -1 20.4000 88.4500 TC 42 20.3225 88.4426 2 2 341
1925177N20089 1925 26 NI BB NOT_NAMED 1925-06-26 12:00:00 TS 20.4599 88.4093 main 123 123 _________OP___ -1 20.5000 88.4000 TC 45 20.4197 88.4185 2 2 350
1925177N20089 1925 26 NI BB NOT_NAMED 1925-06-26 15:00:00 TS 20.5537 88.4000 main 111 111 _________PO___ -1 20.6075 88.4000 TC 45 20.5000 88.4000 3 2 353
1925177N20089 1925 26 NI BB NOT_NAMED 1925-06-26 18:00:00 TS 20.6309 88.3935 main 111 100 _________OP___ -1 20.7000 88.4000 TC 45 20.5618 88.3871 3 1 341
1925177N20089 1925 26 NI BB NOT_NAMED 1925-06-26 21:00:00 TS 20.6775 88.3686 main 100 100 _________PP___ -1 20.7350 88.3650 TC 45 20.6200 88.3723 3 1 328
1925177N20089 1925 26 NI BB NOT_NAMED 1925-06-27 00:00:00 TS 20.7465 88.3232 main 100 78 _________OP___ -1 20.8000 88.3000 TC 45 20.6931 88.3464 3 2 333
1925177N20089 1925 26 NI BB NOT_NAMED 1925-06-27 03:00:00 TS 20.8888 88.2538 main 78 55 _________PO___ -1 20.9775 88.2075 TC 45 20.8000 88.3000 3 4 336
1925177N20089 1925 26 NI BB NOT_NAMED 1925-06-27 06:00:00 TS 21.0861 88.1629 main 55 35 _________OP___ -1 21.2000 88.1000 TC 45 20.9722 88.2257 3 4 337
1925177N20089 1925 26 NI BB NOT_NAMED 1925-06-27 09:00:00 TS 21.2887 88.0688 main 35 23 _________PP___ -1 21.4000 88.0074 TC 45 21.1775 88.1301 3 5 335
1925177N20089 1925 26 NI BB NOT_NAMED 1925-06-27 12:00:00 TS 21.4970 87.9597 main 23 0 _________OP___ -1 21.6000 87.9000 TC 45 21.3941 88.0195 3 5 332
1925177N20089 1925 26 NI BB NOT_NAMED 1925-06-27 15:00:00 TS 21.7075 87.8250 main 0 0 _________PO___ -1 21.8150 87.7501 TC 45 21.6000 87.9000 3 5 327
1925177N20089 1925 26 NI BB NOT_NAMED 1925-06-27 18:00:00 TS 21.8944 87.6810 main 0 0 _________OP___ -1 22.0000 87.6000 TC 45 21.7888 87.7620 3 4 323
1925177N20089 1925 26 NI BB NOT_NAMED 1925-06-27 21:00:00 TS 22.0450 87.5488 main 0 0 _________PP___ -1 22.1300 87.4775 TC 45 21.9601 87.6202 3 3 320
1925177N20089 1925 26 NI BB NOT_NAMED 1925-06-28 00:00:00 TS 22.1507 87.4466 main 0 0 _________OP___ -1 22.2000 87.4000 TC 45 22.1013 87.4933 3 2 319
1925177N20089 1925 26 NI BB NOT_NAMED 1925-06-28 03:00:00 TS 22.2075 87.3925 main 0 0 _________PO___ -1 22.2150 87.3850 TC 45 22.2000 87.4000 3 1 323
1925177N20089 1925 26 NI BB NOT_NAMED 1925-06-28 06:00:00 TS 22.2215 87.3820 main 0 0 _________OP___ -1 22.2000 87.4000 TC 45 22.2431 87.3639 3 0 0
1925177N20089 1925 26 NI BB NOT_NAMED 1925-06-28 09:00:00 TS 22.2225 87.3812 main 0 0 _________PP___ -1 22.2000 87.4000 TC 45 22.2449 87.3623 3 0 0
1925177N20089 1925 26 NI BB NOT_NAMED 1925-06-28 12:00:00 TS 22.2122 87.3898 main 0 0 _________OP___ -1 22.2000 87.4000 TC 45 22.2243 87.3796 3 0 0
1925177N20089 1925 26 NI BB NOT_NAMED 1925-06-28 15:00:00 TS 22.2000 87.4000 main 0 0 _________PO___ -1 22.2000 87.4000 TC 45 22.2000 87.4000 3 0 140
1925177N20089 1925 26 NI BB NOT_NAMED 1925-06-28 18:00:00 TS 22.1817 87.4141 main 0 0 _________OP___ -1 22.2000 87.4000 TC 45 22.1634 87.4282 3 1 144
1925177N20089 1925 26 NI BB NOT_NAMED 1925-06-28 21:00:00 TS 22.1549 87.4373 main 0 0 _________PP___ -1 22.1775 87.4224 TC 45 22.1324 87.4521 3 0 0
1925177N20089 1925 26 NI BB NOT_NAMED 1925-06-29 00:00:00 TS 22.1676 87.4250 main 0 0 _________OP___ -1 22.2000 87.4000 TC 45 22.1352 87.4500 3 1 318
1925177N20089 1925 26 NI BB NOT_NAMED 1925-06-29 03:00:00 TS 22.2525 87.3400 main 0 0 _________PO___ -1 22.3050 87.2799 TC 41 22.2000 87.4000 3 3 320
1925177N20089 1925 26 NI BB NOT_NAMED 1925-06-29 06:00:00 TS 22.4282 87.1898 main 0 0 _________OP___ -1 22.5000 87.1000 TC 37 22.3563 87.2796 3 5 324
1925177N20089 1925 26 NI BB NOT_NAMED 1925-06-29 09:00:00 TS 22.6801 87.0089 main 0 0 _________PP___ -1 22.7850 86.9076 TC 33 22.5751 87.1103 3 6 327
1925177N20089 1925 26 NI BB NOT_NAMED 1925-06-29 12:00:00 TS 22.9657 86.8054 main 0 0 _________OP___ -1 23.1000 86.7000 TC 30 22.8313 86.9108 3 7 326
1925177N20089 1925 26 NI BB NOT_NAMED 1925-06-29 15:00:00 TS 23.2287 86.5999 main 0 0 _________PO___ -1 23.3575 86.4999 TC 30 23.1000 86.7000 1 6 324
1925177N20089 1925 26 NI BB NOT_NAMED 1925-06-29 18:00:00 TS 23.4775 86.3996 main 0 0 _________OP___ -1 23.6000 86.3000 TC 30 23.3550 86.4992 1 6 324
1925177N20089 1925 26 NI BB NOT_NAMED 1925-06-29 21:00:00 TS 23.7363 86.1926 main 0 0 _________PP___ -1 23.8575 86.0925 TC 30 23.6151 86.2927 1 6 324
1925177N20089 1925 26 NI BB NOT_NAMED 1925-06-30 00:00:00 TS 23.9838 85.9949 main 0 0 _________OP___ -1 24.1000 85.9000 TC 30 23.8675 86.0898 1 6 324
1925177N20089 1925 26 NI BB NOT_NAMED 1925-06-30 03:00:00 TS 24.2075 85.8212 main 0 0 _________PO___ -1 24.3150 85.7424 TC 30 24.1000 85.9000 1 5 324
1925177N20089 1925 26 NI BB NOT_NAMED 1925-06-30 06:00:00 TS 24.4023 85.6636 main 0 0 _________OP___ -1 24.5000 85.6000 TC 30 24.3046 85.7273 1 5 322
1925177N20089 1925 26 NI BB NOT_NAMED 1925-06-30 09:00:00 TS 24.5725 85.5061 main 0 0 _________PP___ -1 24.6575 85.4425 TC 30 24.4874 85.5697 1 4 320
1925177N20089 1925 26 NI BB NOT_NAMED 1925-06-30 12:00:00 TS 24.7258 85.3637 main 0 0 _________OP___ -1 24.8000 85.3000 TC 30 24.6515 85.4273 1 4 322
1925177N20089 1925 26 NI BB NOT_NAMED 1925-06-30 15:00:00 TS 24.8787 85.2462 main 0 0 _________PO___ -1 24.9575 85.1925 TC 30 24.8000 85.3000 1 4 327
1925177N20089 1925 26 NI BB NOT_NAMED 1925-06-30 18:00:00 TS 25.0257 85.1468 main 0 0 _________OP___ -1 25.1000 85.1000 TC 30 24.9514 85.1936 1 3 328
1925177N20089 1925 26 NI BB NOT_NAMED 1925-06-30 21:00:00 TS 25.1512 85.0536 main 0 0 _________PP___ -1 25.2150 85.0075 TC 30 25.0873 85.0998 1 3 322
1925177N20089 1925 26 NI BB NOT_NAMED 1925-07-01 00:00:00 TS 25.2523 84.9531 main 0 0 _________OP___ -1 25.3000 84.9000 TC 30 25.2046 85.0061 1 3 311
1925177N20089 1925 26 NI BB NOT_NAMED 1925-07-01 03:00:00 TS 25.3288 84.8287 main 0 0 _________PO___ -1 25.3575 84.7575 TC 30 25.3000 84.9000 1 3 299
1925177N20089 1925 26 NI BB NOT_NAMED 1925-07-01 06:00:00 TS 25.3858 84.6781 main 0 0 _________OP___ -1 25.4000 84.6000 TC 30 25.3716 84.7562 1 3 291
1925177N20089 1925 26 NI BB NOT_NAMED 1925-07-01 09:00:00 TS 25.4363 84.5212 main 0 0 _________PP___ -1 25.4500 84.4425 TC 30 25.4226 84.5999 1 3 289
1925177N20089 1925 26 NI BB NOT_NAMED 1925-07-01 12:00:00 TS 25.4811 84.3718 main 0 0 _________OP___ -1 25.5000 84.3000 TC 30 25.4623 84.4437 1 3 290
1925177N20089 1925 26 NI BB NOT_NAMED 1925-07-01 15:00:00 TS 25.5250 84.2462 main 0 0 _________PO___ -1 25.5500 84.1925 TC 30 25.5000 84.3000 1 2 296
1925177N20089 1925 26 NI BB NOT_NAMED 1925-07-01 18:00:00 TS 25.5748 84.1630 main 0 0 _________OP___ -1 25.6000 84.1000 TC 30 25.5496 84.2261 1 2 308
1925177N20089 1925 26 NI BB NOT_NAMED 1925-07-01 21:00:00 TS 25.6246 84.0986 main 0 0 _________PP___ -1 25.6498 84.0374 TC 30 25.5993 84.1597 1 2 302
1925177N20089 1925 26 NI BB NOT_NAMED 1925-07-02 00:00:00 TS 25.6747 83.9818 main 0 0 _________OP___ -1 25.7000 83.9000 TC 30 25.6494 84.0635 1 3 288
1925177N20089 1925 26 NI BB NOT_NAMED 1925-07-02 03:00:00 TS 25.7251 83.7438 main 0 0 _________PO___ -1 25.7501 83.5875 TC 30 25.7000 83.9000 1 5 281
1925177N20089 1925 26 NI BB NOT_NAMED 1925-07-02 06:00:00 TS 25.7772 83.4090 main 0 0 _________OP___ -1 25.8000 83.2000 TC 30 25.7545 83.6180 1 6 280
1925177N20089 1925 26 NI BB NOT_NAMED 1925-07-02 09:00:00 TS 25.8290 83.0551 main 0 0 _________PP___ -1 25.8500 82.8425 TC 30 25.8081 83.2677 1 7 279
1925177N20089 1925 26 NI BB NOT_NAMED 1925-07-02 12:00:00 TS 25.8788 82.6918 main 0 0 _________OP___ -1 25.9000 82.5000 TC 30 25.8576 82.8836 1 6 279
1925177N20089 1925 26 NI BB NOT_NAMED 1925-07-02 15:00:00 TS 25.9287 82.3500 main 0 0 _________PO___ -1 25.9573 82.2000 TC 30 25.9000 82.5000 1 6 278
1925177N20089 1925 26 NI BB NOT_NAMED 1925-07-02 18:00:00 TS 25.9621 82.0396 main 0 0 _________OP___ -1 26.0000 81.9000 TC 30 25.9336 82.1443 1 6 275
1925177N20089 1925 26 NI BB NOT_NAMED 1925-07-02 21:00:00 TS 25.9801 81.7139 main 0 0 _________PP___ -1 26.0102 81.5624 TC 30 25.9600 81.8149 1 6 273
1925177N20089 1925 26 NI BB NOT_NAMED 1925-07-03 00:00:00 TS 25.9876 81.4021 main 0 0 _________OP___ -1 26.0000 81.2000 TC 30 25.9814 81.5031 1 5 272
1925177N20089 1925 26 NI BB NOT_NAMED 1925-07-03 03:00:00 NR 26.0000 81.2000 main 0 __________O___ -1 TC 26.0000 81.2000 1 4 274

About IBTrACS Database

This database is a web-friendly format of International Best Track Archive for Climate Stewardship (IBTrACS), a global best track data archive curated by NOAA dating back to 1842.

Updated: 2021-12-08